Time;durP1;ratioP1;P1;durP2;ratioP2;P2;SDS_P1;SDS_P2;PMS_P1;PMS_P2;Temp;Humidity;BMP_temperature;BMP_pressure;BME280_temperature;BME280_humidity;BME280_pressure;Samples;Min_cycle;Max_cycle;Signal;HPM_P1;HPM_P2
2021/01/18 00:00:09;;;;;;;6.70;4.65;;;-2.10;99.90;;;;;;5033453;28;20216;-58
2021/01/18 00:02:36;;;;;;;9.57;5.90;;;-2.20;99.90;;;;;;5032964;28;20182;-58
2021/01/18 00:05:04;;;;;;;10.65;7.13;;;-2.40;99.90;;;;;;5032882;28;20703;-57
2021/01/18 00:07:42;;;;;;;9.77;5.28;;;-2.50;99.90;;;;;;5032753;28;20240;-54
2021/01/18 00:10:13;;;;;;;8.15;4.50;;;-2.60;99.90;;;;;;5032109;28;20232;-46
2021/01/18 00:12:43;;;;;;;8.85;3.67;;;-2.80;99.90;;;;;;5032165;28;20197;-50
2021/01/18 00:15:12;;;;;;;11.50;5.03;;;-2.80;99.90;;;;;;5032719;28;20628;-52
2021/01/18 00:17:41;;;;;;;10.90;5.45;;;-2.90;99.90;;;;;;5032036;28;20184;-46
2021/01/18 00:20:10;;;;;;;7.60;3.17;;;-2.80;99.90;;;;;;5031744;28;20210;-48
2021/01/18 00:22:39;;;;;;;4.50;4.07;;;-2.70;99.90;;;;;;5032337;28;20188;-52
2021/01/18 00:25:09;;;;;;;10.18;4.90;;;-2.70;99.90;;;;;;5032135;28;20255;-50
2021/01/18 00:27:37;;;;;;;11.13;5.65;;;-2.60;99.90;;;;;;5030405;28;20697;-53
2021/01/18 00:30:09;;;;;;;5.03;4.47;;;-2.60;99.90;;;;;;5014407;28;20675;-49
2021/01/18 00:32:38;;;;;;;7.43;5.32;;;-2.50;99.90;;;;;;5031747;28;20205;-56
2021/01/18 00:35:07;;;;;;;7.40;4.95;;;-2.70;99.90;;;;;;5031913;28;20616;-46
2021/01/18 00:37:41;;;;;;;6.93;3.50;;;-2.80;99.90;;;;;;5031648;28;20169;-47
2021/01/18 00:40:10;;;;;;;3.95;3.20;;;-2.90;99.90;;;;;;5031572;28;20557;-52
2021/01/18 00:42:39;;;;;;;6.20;4.90;;;-2.80;99.90;;;;;;5031325;28;20576;-49
2021/01/18 00:45:08;;;;;;;11.15;5.28;;;-2.70;99.90;;;;;;5031869;28;20594;-52
2021/01/18 00:47:40;;;;;;;6.82;4.53;;;-2.60;99.90;;;;;;5031865;28;20608;-49
2021/01/18 00:50:08;;;;;;;21.45;8.75;;;-2.70;99.90;;;;;;5013694;28;20213;-47
2021/01/18 00:52:35;;;;;;;6.90;5.40;;;-2.80;99.90;;;;;;5033033;28;20186;-51
2021/01/18 00:55:04;;;;;;;6.03;4.22;;;-2.70;99.90;;;;;;5017930;28;20280;-48
2021/01/18 00:57:45;;;;;;;10.68;5.20;;;-2.60;99.90;;;;;;5018139;28;20243;-46
2021/01/18 01:00:14;;;;;;;9.80;5.80;;;-2.70;99.90;;;;;;5034059;28;20213;-57
2021/01/18 01:02:44;;;;;;;9.48;3.95;;;-2.60;99.90;;;;;;5025564;28;20678;-48
2021/01/18 01:05:13;;;;;;;8.05;4.28;;;-2.60;99.90;;;;;;5017594;28;20221;-49
2021/01/18 01:07:41;;;;;;;12.15;5.13;;;-2.50;99.90;;;;;;5035472;28;20184;-53
2021/01/18 01:10:11;;;;;;;10.07;6.78;;;-2.70;99.90;;;;;;5035147;28;20251;-47
2021/01/18 01:12:38;;;;;;;9.93;8.32;;;-2.90;99.90;;;;;;5018556;28;20631;-47
2021/01/18 01:15:08;;;;;;;8.95;6.15;;;-2.80;99.90;;;;;;5037841;28;20261;-53
2021/01/18 01:17:40;;;;;;;11.60;4.93;;;-2.80;99.90;;;;;;5037353;28;20281;-48
2021/01/18 01:20:09;;;;;;;7.38;4.82;;;-2.70;99.90;;;;;;5037070;28;20205;-48
2021/01/18 01:22:38;;;;;;;6.15;4.75;;;-2.70;99.90;;;;;;5036906;28;20312;-49
2021/01/18 01:25:06;;;;;;;8.00;6.03;;;-2.60;99.90;;;;;;5036734;28;20197;-46
2021/01/18 01:27:34;;;;;;;6.38;4.78;;;-2.70;99.90;;;;;;5037250;28;20181;-47
2021/01/18 01:30:01;;;;;;;9.52;6.45;;;-2.80;99.90;;;;;;5036993;28;20205;-45
2021/01/18 01:32:28;;;;;;;8.32;4.20;;;-2.80;99.90;;;;;;5035383;28;20182;-47
2021/01/18 01:34:56;;;;;;;7.10;5.38;;;-3.00;99.90;;;;;;5034615;28;20224;-47
2021/01/18 01:37:23;;;;;;;14.10;5.70;;;-3.00;99.90;;;;;;5034951;28;20177;-48
2021/01/18 01:39:51;;;;;;;8.93;3.70;;;-3.00;99.90;;;;;;5034722;28;20269;-50
2021/01/18 01:42:20;;;;;;;6.15;4.30;;;-3.00;99.90;;;;;;5034539;28;20182;-48
2021/01/18 01:44:48;;;;;;;8.30;5.40;;;-3.00;99.90;;;;;;5033275;28;20197;-48
2021/01/18 01:47:23;;;;;;;8.23;5.63;;;-2.90;99.90;;;;;;5033630;28;20212;-47
2021/01/18 01:49:52;;;;;;;16.50;5.68;;;-3.00;99.90;;;;;;5033152;28;20185;-44
2021/01/18 01:52:20;;;;;;;13.85;5.60;;;-3.00;99.90;;;;;;5033516;28;20576;-47
2021/01/18 01:54:50;;;;;;;10.05;5.28;;;-3.20;99.90;;;;;;5033511;28;20188;-45
2021/01/18 01:57:18;;;;;;;14.20;8.15;;;-3.10;99.90;;;;;;5033591;28;20609;-44
2021/01/18 01:59:45;;;;;;;7.43;4.75;;;-3.10;99.90;;;;;;5015291;28;20190;-55
2021/01/18 02:02:14;;;;;;;4.68;3.60;;;-3.10;99.90;;;;;;5033852;28;20650;-48
2021/01/18 02:04:42;;;;;;;14.23;9.20;;;-3.00;99.90;;;;;;5032633;28;20205;-52
2021/01/18 02:07:23;;;;;;;8.45;4.70;;;-2.90;99.90;;;;;;5033035;28;20197;-53
2021/01/18 02:09:50;;;;;;;5.95;3.90;;;-2.90;99.90;;;;;;5032705;28;20188;-47
2021/01/18 02:12:18;;;;;;;12.07;6.82;;;-2.80;99.90;;;;;;5033096;28;20188;-46
2021/01/18 02:15:02;;;;;;;6.88;5.30;;;-2.80;99.90;;;;;;5033291;28;20196;-49
2021/01/18 02:17:47;;;;;;;8.93;6.22;;;-2.80;99.90;;;;;;5033151;28;20182;-50
2021/01/18 02:20:45;;;;;;;8.77;5.50;;;-2.80;99.90;;;;;;5032749;28;20608;-48
2021/01/18 02:23:42;;;;;;;8.20;4.82;;;-2.80;99.90;;;;;;5032570;28;20209;-50
2021/01/18 02:26:13;;;;;;;7.78;5.47;;;-2.80;99.90;;;;;;5032613;28;20542;-49
2021/01/18 02:28:59;;;;;;;6.03;5.10;;;-2.90;99.90;;;;;;5032754;28;20182;-52
2021/01/18 02:31:47;;;;;;;6.45;4.88;;;-2.90;99.90;;;;;;5032595;28;20213;-51
2021/01/18 02:34:52;;;;;;;5.53;3.88;;;-2.90;99.90;;;;;;5032736;28;20181;-53
2021/01/18 02:37:44;;;;;;;7.20;5.25;;;-2.80;99.90;;;;;;5032571;28;20253;-52
2021/01/18 02:40:19;;;;;;;7.78;4.65;;;-2.80;99.90;;;;;;5032933;28;20213;-55
2021/01/18 02:42:50;;;;;;;12.07;6.97;;;-2.70;99.90;;;;;;5008347;28;727618;-58
2021/01/18 02:45:21;;;;;;;5.47;4.97;;;-2.70;99.90;;;;;;5034123;28;20415;-53
2021/01/18 02:47:49;;;;;;;14.48;8.18;;;-2.60;99.90;;;;;;5034097;28;20188;-58
2021/01/18 02:50:18;;;;;;;7.85;4.97;;;-2.50;99.90;;;;;;5034010;28;20247;-54
2021/01/18 02:52:47;;;;;;;9.55;7.43;;;-2.50;99.90;;;;;;5034070;28;20181;-55
2021/01/18 02:55:16;;;;;;;17.80;7.70;;;-2.40;99.90;;;;;;5034043;28;20181;-52
2021/01/18 02:57:47;;;;;;;10.52;8.27;;;-2.30;99.90;;;;;;5034070;28;20174;-57
2021/01/18 03:00:19;;;;;;;9.00;4.82;;;-2.20;99.90;;;;;;5033979;28;20283;-56
2021/01/18 03:02:53;;;;;;;7.30;6.55;;;-2.20;99.90;;;;;;5033574;28;20166;-57
2021/01/18 03:05:41;;;;;;;14.48;8.73;;;-2.20;99.90;;;;;;5033688;28;20550;-53
2021/01/18 03:08:27;;;;;;;8.48;5.95;;;-2.20;99.90;;;;;;5033560;28;20177;-55
2021/01/18 03:11:00;;;;;;;9.73;5.47;;;-2.20;99.90;;;;;;5033697;28;20209;-58
2021/01/18 03:13:32;;;;;;;18.10;7.95;;;-2.20;99.90;;;;;;5033585;28;20181;-59
2021/01/18 03:16:04;;;;;;;16.38;11.13;;;-2.40;99.90;;;;;;5033580;28;20522;-56
2021/01/18 03:18:34;;;;;;;8.40;5.43;;;-2.20;99.90;;;;;;5015946;28;20546;-55
2021/01/18 03:21:01;;;;;;;6.95;6.32;;;-2.10;99.90;;;;;;5033530;28;20237;-56
2021/01/18 03:23:30;;;;;;;13.40;7.38;;;-2.00;99.90;;;;;;5033495;28;20201;-56
2021/01/18 03:25:57;;;;;;;13.80;8.68;;;-1.90;99.90;;;;;;5033569;28;20769;-58
2021/01/18 03:28:25;;;;;;;16.80;6.63;;;-2.00;99.90;;;;;;5033162;28;20186;-56
2021/01/18 03:30:52;;;;;;;14.32;8.18;;;-2.10;99.90;;;;;;5033224;28;20263;-54
2021/01/18 03:33:24;;;;;;;28.38;9.95;;;-2.10;99.90;;;;;;5033298;28;20301;-56
2021/01/18 03:35:52;;;;;;;10.27;8.57;;;-2.10;99.90;;;;;;5033297;28;20177;-59
2021/01/18 03:38:20;;;;;;;10.77;8.70;;;-2.00;99.90;;;;;;5033239;28;20270;-58
2021/01/18 03:40:49;;;;;;;7.07;5.28;;;-2.10;99.90;;;;;;5033246;28;20277;-58
2021/01/18 03:43:19;;;;;;;16.65;11.10;;;-2.10;99.90;;;;;;5028701;23;20555;-59
2021/01/18 03:45:47;;;;;;;14.75;8.32;;;-2.10;99.90;;;;;;5032152;28;20177;-56
2021/01/18 03:48:14;;;;;;;6.18;3.75;;;-2.00;99.90;;;;;;5032226;28;20189;-53
2021/01/18 03:50:43;;;;;;;8.98;6.78;;;-2.00;99.90;;;;;;5032278;28;20480;-58
2021/01/18 03:53:11;;;;;;;13.77;7.28;;;-1.90;99.90;;;;;;5032233;28;20300;-57
2021/01/18 03:55:39;;;;;;;9.55;6.35;;;-1.80;99.90;;;;;;5032053;28;20186;-59
2021/01/18 03:58:07;;;;;;;9.35;5.18;;;-1.90;99.90;;;;;;5032170;28;20189;-56
2021/01/18 04:00:35;;;;;;;17.88;7.68;;;-2.00;99.90;;;;;;5031772;28;20212;-54
2021/01/18 04:03:03;;;;;;;22.58;8.73;;;-2.10;99.90;;;;;;5031630;28;20189;-55
2021/01/18 04:05:31;;;;;;;15.52;10.45;;;-2.10;99.90;;;;;;5031944;28;20173;-57
2021/01/18 04:07:58;;;;;;;12.57;7.60;;;-2.10;99.90;;;;;;5031882;28;20228;-57
2021/01/18 04:10:28;;;;;;;12.02;6.28;;;-2.10;99.90;;;;;;5031761;28;20275;-57
2021/01/18 04:12:56;;;;;;;13.60;7.88;;;-2.10;99.90;;;;;;5031327;28;20228;-55
2021/01/18 04:15:25;;;;;;;14.25;6.85;;;-2.20;99.90;;;;;;5032217;28;20661;-59
2021/01/18 04:17:55;;;;;;;17.60;8.02;;;-2.30;99.90;;;;;;5032329;28;20272;-54
2021/01/18 04:20:23;;;;;;;6.47;4.90;;;-2.20;99.90;;;;;;5031786;28;20278;-58
2021/01/18 04:22:52;;;;;;;12.45;8.52;;;-2.30;99.90;;;;;;5031619;28;20600;-56
2021/01/18 04:25:20;;;;;;;9.18;3.42;;;-2.20;99.90;;;;;;5031768;28;21158;-55
2021/01/18 04:27:49;;;;;;;16.55;7.90;;;-2.20;99.90;;;;;;5035028;28;20315;-54
2021/01/18 04:30:18;;;;;;;20.30;8.32;;;-2.10;99.90;;;;;;5035947;28;20209;-56
2021/01/18 04:32:52;;;;;;;12.77;7.85;;;-2.10;99.90;;;;;;5036154;28;20185;-56
2021/01/18 04:35:20;;;;;;;12.90;7.82;;;-2.10;99.90;;;;;;5035645;28;20196;-55
2021/01/18 04:37:47;;;;;;;14.45;8.02;;;-2.00;99.90;;;;;;5035515;28;20193;-55
2021/01/18 04:40:18;;;;;;;14.40;9.85;;;-2.00;99.90;;;;;;5035885;28;20221;-56
2021/01/18 04:42:45;;;;;;;12.07;7.28;;;-2.00;99.90;;;;;;5035465;28;20708;-56
2021/01/18 04:45:15;;;;;;;9.30;7.35;;;-2.10;99.90;;;;;;5035723;28;20209;-56
2021/01/18 04:47:44;;;;;;;11.15;6.13;;;-2.10;99.90;;;;;;5036120;28;20170;-52
2021/01/18 04:50:14;;;;;;;16.20;7.07;;;-2.20;99.90;;;;;;5035761;28;20223;-54
2021/01/18 04:52:49;;;;;;;11.05;5.30;;;-2.20;99.90;;;;;;5035848;28;20181;-55
2021/01/18 04:55:30;;;;;;;8.77;6.90;;;-2.20;99.90;;;;;;5036029;28;20201;-59
2021/01/18 04:58:11;;;;;;;9.88;5.70;;;-2.20;99.90;;;;;;5035676;28;20190;-57
2021/01/18 05:00:44;;;;;;;9.27;6.03;;;-2.30;99.90;;;;;;5035602;28;20587;-59
2021/01/18 05:03:13;;;;;;;10.15;6.97;;;-2.30;99.90;;;;;;5035995;28;20546;-55
2021/01/18 05:06:28;;;;;;;12.32;8.55;;;-2.10;99.90;;;;;;5035539;28;20174;-57
2021/01/18 05:09:24;;;;;;;9.02;5.25;;;-2.00;99.90;;;;;;5026775;28;20281;-58
2021/01/18 05:11:52;;;;;;;8.32;4.65;;;-2.20;99.90;;;;;;5035518;28;20300;-55
2021/01/18 05:14:19;;;;;;;16.27;7.78;;;-2.20;99.90;;;;;;5035486;28;20232;-58
2021/01/18 05:16:52;;;;;;;4.15;3.75;;;-2.10;99.90;;;;;;5035198;28;20193;-57
2021/01/18 05:19:20;;;;;;;8.30;5.45;;;-2.10;99.90;;;;;;5035032;28;20178;-56
2021/01/18 05:21:48;;;;;;;8.77;6.18;;;-2.10;99.90;;;;;;5035283;28;20276;-58
2021/01/18 05:24:18;;;;;;;8.73;5.90;;;-2.00;99.90;;;;;;5035471;28;20568;-58
2021/01/18 05:27:01;;;;;;;14.38;8.15;;;-1.90;99.90;;;;;;5035093;28;20190;-54
2021/01/18 05:29:30;;;;;;;10.43;7.65;;;-2.00;99.90;;;;;;5036188;28;20768;-57
2021/01/18 05:31:57;;;;;;;12.80;8.18;;;-2.10;99.90;;;;;;5038254;28;20267;-56
2021/01/18 05:34:27;;;;;;;7.38;4.65;;;-2.10;99.90;;;;;;5037040;28;20634;-55
2021/01/18 05:36:55;;;;;;;9.13;7.57;;;-2.30;99.90;;;;;;5036963;28;20290;-57
2021/01/18 05:39:30;;;;;;;8.07;5.45;;;-2.30;99.90;;;;;;5038292;28;20240;-57
2021/01/18 05:41:58;;;;;;;9.23;5.40;;;-2.30;99.90;;;;;;5035129;28;20600;-56
2021/01/18 05:44:32;;;;;;;10.32;8.85;;;-2.30;99.90;;;;;;5035262;28;20217;-60
2021/01/18 05:47:03;;;;;;;15.80;9.10;;;-2.20;99.90;;;;;;5034674;28;20220;-53
2021/01/18 05:49:40;;;;;;;6.97;4.70;;;-2.20;99.90;;;;;;5034828;28;20657;-56
2021/01/18 05:52:23;;;;;;;9.80;4.70;;;-2.10;99.90;;;;;;5034676;28;20204;-54
2021/01/18 05:55:10;;;;;;;22.67;9.55;;;-2.10;99.90;;;;;;5034722;28;20260;-57
2021/01/18 05:57:38;;;;;;;11.10;7.95;;;-2.10;99.90;;;;;;5034362;28;20601;-58
2021/01/18 06:00:06;;;;;;;15.57;6.72;;;-2.10;99.90;;;;;;5034422;28;20288;-53
2021/01/18 06:02:38;;;;;;;8.82;4.97;;;-2.10;99.90;;;;;;5036366;28;20220;-54
2021/01/18 06:05:07;;;;;;;10.05;7.30;;;-2.10;99.90;;;;;;5054439;28;20201;-54
2021/01/18 06:07:35;;;;;;;17.02;8.52;;;-2.10;99.90;;;;;;5054867;28;20200;-57
2021/01/18 06:10:03;;;;;;;14.70;8.68;;;-2.10;99.90;;;;;;5054252;28;20291;-57
2021/01/18 06:12:31;;;;;;;13.88;5.88;;;-2.10;99.90;;;;;;5054404;28;20246;-56
2021/01/18 06:15:07;;;;;;;8.18;4.95;;;-2.10;99.90;;;;;;5054064;28;20653;-58
2021/01/18 06:17:37;;;;;;;5.45;4.50;;;-2.00;99.90;;;;;;5054185;28;20208;-53
2021/01/18 06:20:06;;;;;;;9.25;6.65;;;-2.00;99.90;;;;;;5053923;28;20255;-55
2021/01/18 06:22:34;;;;;;;26.88;9.18;;;-2.00;99.90;;;;;;5054138;28;20189;-55
2021/01/18 06:25:12;;;;;;;12.70;7.57;;;-2.00;99.90;;;;;;5053853;28;20199;-57
2021/01/18 06:27:40;;;;;;;12.48;7.30;;;-2.20;99.90;;;;;;5054189;28;20203;-56
2021/01/18 06:30:21;;;;;;;12.05;6.90;;;-2.20;99.90;;;;;;5053618;28;20216;-57
2021/01/18 06:32:53;;;;;;;10.48;7.82;;;-2.10;99.90;;;;;;5053821;28;20621;-57
2021/01/18 06:35:23;;;;;;;15.75;7.40;;;-2.10;99.90;;;;;;5026537;28;20568;-57
2021/01/18 06:37:59;;;;;;;4.70;4.20;;;-2.00;99.90;;;;;;5043321;28;20833;-58
2021/01/18 06:40:32;;;;;;;7.78;6.32;;;-2.00;99.90;;;;;;5032409;28;20242;-56
2021/01/18 06:43:00;;;;;;;12.65;6.47;;;-2.10;99.90;;;;;;5014389;28;20312;-55
2021/01/18 06:45:32;;;;;;;17.13;10.43;;;-2.00;99.90;;;;;;5014196;28;20612;-55
2021/01/18 06:48:00;;;;;;;16.50;11.57;;;-2.10;99.90;;;;;;5031429;28;20192;-57
2021/01/18 06:50:34;;;;;;;16.52;9.45;;;-2.10;99.90;;;;;;5050218;28;20216;-57
2021/01/18 06:53:15;;;;;;;12.68;6.78;;;-2.20;99.90;;;;;;5051839;28;20204;-55
2021/01/18 06:56:25;;;;;;;11.80;6.22;;;-2.20;99.90;;;;;;5051539;28;20731;-58
2021/01/18 06:59:02;;;;;;;14.18;9.10;;;-2.20;99.90;;;;;;5032418;28;20576;-57
2021/01/18 07:01:31;;;;;;;10.77;6.55;;;-2.20;99.90;;;;;;5051227;28;20284;-57
2021/01/18 07:04:04;;;;;;;6.38;4.32;;;-2.10;99.90;;;;;;5052087;28;20205;-57
2021/01/18 07:06:34;;;;;;;8.40;5.85;;;-2.20;99.90;;;;;;5051606;28;20164;-57
2021/01/18 07:09:05;;;;;;;15.57;5.40;;;-2.10;99.90;;;;;;5051275;28;20204;-54
2021/01/18 07:12:00;;;;;;;17.33;7.75;;;-2.00;99.90;;;;;;5051148;28;20253;-55
2021/01/18 07:14:29;;;;;;;12.52;5.68;;;-2.00;99.90;;;;;;5039314;28;20181;-56
2021/01/18 07:17:03;;;;;;;4.53;4.13;;;-2.10;99.90;;;;;;5032677;28;20690;-55
2021/01/18 07:19:36;;;;;;;11.73;7.80;;;-2.20;99.90;;;;;;5032773;28;20236;-56
2021/01/18 07:22:33;;;;;;;11.77;5.40;;;-2.10;99.90;;;;;;5032907;28;20549;-56
2021/01/18 07:25:22;;;;;;;17.63;8.07;;;-2.00;99.90;;;;;;5032311;28;20331;-51
2021/01/18 07:27:53;;;;;;;8.85;6.10;;;-1.90;99.90;;;;;;5032528;28;20193;-53
2021/01/18 07:30:20;;;;;;;14.43;6.45;;;-1.80;99.90;;;;;;5032239;28;20209;-57
2021/01/18 07:32:48;;;;;;;17.02;8.93;;;-1.90;99.90;;;;;;5032303;28;20223;-55
2021/01/18 07:35:15;;;;;;;14.80;8.63;;;-1.80;99.90;;;;;;5032512;28;20178;-53
2021/01/18 07:37:43;;;;;;;14.05;7.68;;;-1.90;99.90;;;;;;5032828;28;20278;-52
2021/01/18 07:40:11;;;;;;;7.97;4.78;;;-1.90;99.90;;;;;;5034692;28;20230;-57
2021/01/18 07:42:40;;;;;;;14.25;9.15;;;-1.90;99.90;;;;;;5035550;28;20586;-52
2021/01/18 07:45:17;;;;;;;16.48;8.02;;;-1.80;99.90;;;;;;5035594;28;20185;-54
2021/01/18 07:48:05;;;;;;;10.18;8.25;;;-1.70;99.90;;;;;;5035177;28;20178;-55
2021/01/18 07:50:35;;;;;;;12.02;6.10;;;-1.70;99.90;;;;;;5055743;28;20688;-53
2021/01/18 07:53:04;;;;;;;17.65;12.77;;;-1.70;99.90;;;;;;5057221;28;20193;-54
2021/01/18 07:55:31;;;;;;;11.57;7.53;;;-1.60;99.90;;;;;;5056985;28;20177;-54
2021/01/18 07:58:12;;;;;;;11.32;7.95;;;-1.50;99.90;;;;;;5058079;28;20169;-56
2021/01/18 08:00:41;;;;;;;11.52;7.93;;;-1.50;99.90;;;;;;5052600;28;20212;-60
2021/01/18 08:03:23;;;;;;;14.70;9.35;;;-1.70;99.90;;;;;;5038842;28;20196;-53
2021/01/18 08:06:13;;;;;;;15.13;10.18;;;-1.60;99.90;;;;;;5032380;28;20193;-53
2021/01/18 08:08:40;;;;;;;10.73;6.78;;;-1.60;99.90;;;;;;5032100;28;20625;-58
2021/01/18 08:11:16;;;;;;;8.13;6.35;;;-1.70;99.90;;;;;;5031670;28;20244;-56
2021/01/18 08:13:55;;;;;;;14.18;11.50;;;-1.70;99.90;;;;;;5031713;28;20184;-58
2021/01/18 08:16:28;;;;;;;12.95;7.90;;;-1.60;99.90;;;;;;5045720;28;20220;-54
2021/01/18 08:18:59;;;;;;;10.43;7.18;;;-1.70;99.90;;;;;;5051740;28;20177;-55
2021/01/18 08:22:00;;;;;;;10.35;7.95;;;-1.70;99.90;;;;;;5051878;28;20205;-55
2021/01/18 08:24:54;;;;;;;13.68;10.77;;;-1.70;99.90;;;;;;4970884;28;20223;-54
2021/01/18 08:27:42;;;;;;;7.70;5.22;;;-1.60;99.90;;;;;;5049700;28;20291;-56
2021/01/18 08:30:30;;;;;;;15.75;10.80;;;-1.50;99.90;;;;;;5051562;28;20208;-53
2021/01/18 08:33:04;;;;;;;10.80;6.35;;;-1.60;99.90;;;;;;5040863;28;20280;-56
2021/01/18 08:35:34;;;;;;;14.00;8.57;;;-1.70;99.90;;;;;;5031614;28;20192;-58
2021/01/18 08:38:06;;;;;;;14.70;8.50;;;-1.80;99.90;;;;;;5031823;28;20182;-56
2021/01/18 08:40:43;;;;;;;9.32;6.00;;;-1.70;99.90;;;;;;5031650;28;20205;-58
2021/01/18 08:43:11;;;;;;;7.60;4.30;;;-1.80;99.90;;;;;;5031886;28;20185;-53
2021/01/18 08:45:41;;;;;;;15.25;8.60;;;-1.80;99.90;;;;;;5031408;28;20193;-53
2021/01/18 08:48:11;;;;;;;18.88;8.57;;;-1.70;99.90;;;;;;5031417;28;20269;-52
2021/01/18 08:50:43;;;;;;;18.27;10.23;;;-1.70;99.90;;;;;;5035056;28;20246;-55
2021/01/18 08:53:27;;;;;;;18.67;11.93;;;-1.50;99.90;;;;;;5051632;28;20264;-55
2021/01/18 08:55:55;;;;;;;17.70;10.48;;;-1.50;99.90;;;;;;5051637;28;20177;-57
2021/01/18 08:58:43;;;;;;;22.20;12.20;;;-1.50;99.90;;;;;;5033474;28;20295;-57
2021/01/18 09:01:19;;;;;;;16.15;9.30;;;-1.60;99.90;;;;;;5051681;28;20224;-54
2021/01/18 09:03:56;;;;;;;9.35;6.53;;;-1.70;99.90;;;;;;5051929;28;20267;-52
2021/01/18 09:06:24;;;;;;;12.05;5.75;;;-1.60;99.90;;;;;;5052084;28;20176;-58
2021/01/18 09:09:01;;;;;;;14.00;10.05;;;-1.50;99.90;;;;;;5051660;28;20254;-58
2021/01/18 09:11:29;;;;;;;18.70;12.77;;;-1.40;99.90;;;;;;5033012;28;20236;-56
2021/01/18 09:13:56;;;;;;;18.30;11.85;;;-1.40;99.90;;;;;;5044973;28;20674;-56
2021/01/18 09:16:23;;;;;;;22.55;8.55;;;-1.40;99.90;;;;;;5054620;28;20262;-55
2021/01/18 09:18:52;;;;;;;10.20;7.38;;;-1.30;99.90;;;;;;5055163;28;20212;-57
2021/01/18 09:21:19;;;;;;;14.50;10.43;;;-1.20;99.90;;;;;;5054577;28;20209;-57
2021/01/18 09:23:46;;;;;;;20.10;10.90;;;-1.10;99.90;;;;;;5055236;28;20571;-55
2021/01/18 09:26:15;;;;;;;20.70;10.57;;;-1.00;99.90;;;;;;5055583;28;20257;-57
2021/01/18 09:28:52;;;;;;;23.35;15.15;;;-0.90;99.90;;;;;;5054794;28;20169;-59
2021/01/18 09:31:20;;;;;;;24.85;11.23;;;-1.00;99.90;;;;;;5054760;28;20216;-56
2021/01/18 09:33:48;;;;;;;12.50;8.13;;;-0.90;99.90;;;;;;5055866;28;20219;-56
2021/01/18 09:36:18;;;;;;;18.05;8.63;;;-0.80;99.90;;;;;;5055720;28;20173;-57
2021/01/18 09:38:46;;;;;;;13.40;10.05;;;-0.60;99.90;;;;;;5054836;28;20197;-58
2021/01/18 09:41:14;;;;;;;16.27;10.77;;;-0.40;99.90;;;;;;5054639;28;20626;-56
2021/01/18 09:43:43;;;;;;;14.93;11.88;;;-0.50;99.90;;;;;;5092467;22;20225;-53
2021/01/18 09:46:11;;;;;;;15.73;10.75;;;-0.50;99.90;;;;;;5034254;28;20266;-54
2021/01/18 09:48:39;;;;;;;16.33;10.85;;;-0.60;99.90;;;;;;5034959;28;20200;-48
2021/01/18 09:51:09;;;;;;;12.07;8.15;;;-0.60;99.90;;;;;;5035005;28;20268;-54
2021/01/18 09:53:37;;;;;;;19.80;9.45;;;-0.50;99.90;;;;;;5034803;28;20180;-49
2021/01/18 09:56:07;;;;;;;12.98;8.80;;;-0.50;99.90;;;;;;5034869;28;20590;-51
2021/01/18 09:58:39;;;;;;;16.70;12.07;;;-0.40;99.90;;;;;;5033390;28;20239;-47
2021/01/18 10:01:11;;;;;;;29.48;13.07;;;-0.50;99.90;;;;;;5035340;28;20291;-50
2021/01/18 10:03:40;;;;;;;20.35;11.20;;;-0.50;99.90;;;;;;5034111;28;20623;-48
2021/01/18 10:06:08;;;;;;;27.50;15.98;;;-0.60;99.90;;;;;;5034367;28;20213;-56
2021/01/18 10:08:39;;;;;;;16.20;10.23;;;-0.50;99.90;;;;;;5034433;28;20666;-47
2021/01/18 10:11:07;;;;;;;12.50;10.85;;;-0.50;99.90;;;;;;5034638;28;20212;-49
2021/01/18 10:13:35;;;;;;;14.68;13.30;;;-0.50;99.90;;;;;;5033793;28;20190;-51
2021/01/18 10:16:07;;;;;;;21.23;10.30;;;-0.50;99.90;;;;;;5033632;28;20185;-51
2021/01/18 10:18:38;;;;;;;16.33;12.35;;;-0.40;99.90;;;;;;5033600;28;20205;-49
2021/01/18 10:21:06;;;;;;;25.10;17.90;;;-0.30;99.90;;;;;;5033542;28;20587;-50
2021/01/18 10:23:35;;;;;;;14.73;9.75;;;-0.30;99.90;;;;;;5033818;28;20178;-51
2021/01/18 10:26:22;;;;;;;16.30;11.15;;;-0.40;99.90;;;;;;5032777;28;20201;-49
2021/01/18 10:28:56;;;;;;;13.43;10.98;;;-0.30;99.90;;;;;;5034028;28;20489;-54
2021/01/18 10:31:26;;;;;;;13.13;9.18;;;-0.20;99.90;;;;;;5033799;28;20232;-56
2021/01/18 10:34:10;;;;;;;15.32;11.10;;;0.00;99.90;;;;;;5034929;28;20182;-50
2021/01/18 10:36:39;;;;;;;19.08;12.85;;;0.20;99.90;;;;;;5035046;28;20232;-51
2021/01/18 10:39:07;;;;;;;24.63;12.95;;;0.30;99.90;;;;;;5035680;28;20227;-48
2021/01/18 10:41:35;;;;;;;25.58;13.52;;;0.40;99.90;;;;;;5034712;28;20695;-49
2021/01/18 10:44:15;;;;;;;16.27;11.82;;;0.40;99.90;;;;;;5034482;28;20284;-54
2021/01/18 10:46:50;;;;;;;24.83;15.52;;;0.40;99.90;;;;;;5034449;28;20189;-49
2021/01/18 10:49:24;;;;;;;19.10;11.13;;;0.30;99.90;;;;;;5034573;28;20593;-51
2021/01/18 10:52:05;;;;;;;29.75;15.27;;;0.40;99.90;;;;;;5034177;28;20264;-50
2021/01/18 10:54:33;;;;;;;13.45;10.45;;;0.20;99.90;;;;;;5033552;28;20178;-47
2021/01/18 10:57:02;;;;;;;20.83;13.15;;;0.30;99.90;;;;;;5015680;28;20244;-48
2021/01/18 10:59:30;;;;;;;22.50;14.48;;;0.20;99.90;;;;;;5032809;28;20537;-48
2021/01/18 11:02:05;;;;;;;20.85;13.77;;;0.20;99.90;;;;;;5032540;28;20248;-48
2021/01/18 11:04:43;;;;;;;25.23;12.52;;;0.20;99.90;;;;;;5032585;28;20292;-53
2021/01/18 11:07:11;;;;;;;19.35;11.88;;;0.30;99.90;;;;;;5032786;28;20173;-53
2021/01/18 11:09:38;;;;;;;18.20;12.38;;;0.40;99.90;;;;;;5032787;28;20673;-57
2021/01/18 11:12:07;;;;;;;11.95;7.40;;;0.40;99.90;;;;;;5032883;28;20193;-50
2021/01/18 11:14:36;;;;;;;27.95;16.55;;;0.40;99.90;;;;;;5032679;28;20190;-49
2021/01/18 11:17:06;;;;;;;25.83;12.15;;;0.40;99.90;;;;;;5032462;28;20204;-47
2021/01/18 11:19:35;;;;;;;21.15;12.95;;;0.20;99.90;;;;;;5033030;28;20178;-47
2021/01/18 11:22:02;;;;;;;26.45;14.55;;;0.20;99.90;;;;;;5032776;28;20243;-47
2021/01/18 11:24:29;;;;;;;23.52;13.48;;;0.30;99.90;;;;;;5033020;28;20279;-47
2021/01/18 11:26:56;;;;;;;18.05;13.75;;;0.40;99.90;;;;;;5032683;28;20185;-55
2021/01/18 11:29:26;;;;;;;19.35;13.98;;;0.30;99.90;;;;;;5032676;28;20265;-48
2021/01/18 11:31:54;;;;;;;22.85;14.20;;;0.50;99.90;;;;;;5032687;28;20220;-47
2021/01/18 11:34:23;;;;;;;21.45;16.05;;;0.40;99.90;;;;;;5032663;28;20185;-50
2021/01/18 11:36:50;;;;;;;18.35;11.75;;;0.50;99.90;;;;;;5033101;28;20228;-48
2021/01/18 11:39:17;;;;;;;27.73;17.65;;;0.60;99.90;;;;;;5032672;28;20201;-50
2021/01/18 11:41:44;;;;;;;24.13;14.02;;;0.60;99.90;;;;;;5033728;28;20214;-53
2021/01/18 11:44:12;;;;;;;19.83;16.55;;;0.50;99.90;;;;;;5015374;28;20221;-49
2021/01/18 11:46:40;;;;;;;18.88;11.45;;;0.60;99.90;;;;;;5032883;28;20698;-50
2021/01/18 11:49:07;;;;;;;29.65;12.40;;;0.60;99.90;;;;;;5032535;28;20200;-48
2021/01/18 11:51:35;;;;;;;24.83;15.38;;;0.70;99.90;;;;;;5015245;28;20213;-46
2021/01/18 11:54:03;;;;;;;13.93;9.27;;;0.60;99.90;;;;;;5032337;28;20197;-51
2021/01/18 11:56:31;;;;;;;27.15;12.68;;;0.50;99.90;;;;;;5032643;28;20177;-47
2021/01/18 11:58:59;;;;;;;18.98;10.05;;;0.70;99.90;;;;;;5032269;28;20186;-47
2021/01/18 12:01:26;;;;;;;16.42;10.23;;;0.70;99.90;;;;;;5032533;28;20205;-50
2021/01/18 12:03:56;;;;;;;20.42;11.90;;;0.60;99.90;;;;;;5032245;28;20181;-54
2021/01/18 12:06:31;;;;;;;22.30;12.98;;;0.80;99.90;;;;;;5032140;28;20248;-51
2021/01/18 12:08:58;;;;;;;14.70;10.20;;;0.80;99.90;;;;;;5032042;28;20181;-51
2021/01/18 12:11:26;;;;;;;21.08;14.95;;;0.80;99.90;;;;;;5032087;28;20727;-52
2021/01/18 12:13:54;;;;;;;19.60;14.20;;;0.80;99.90;;;;;;5014509;28;20240;-53
2021/01/18 12:16:24;;;;;;;27.60;16.05;;;0.70;99.90;;;;;;5032151;28;20185;-48
2021/01/18 12:18:52;;;;;;;23.33;13.73;;;0.60;99.90;;;;;;5032095;28;20245;-55
2021/01/18 12:21:20;;;;;;;19.25;14.85;;;0.70;99.90;;;;;;5014735;28;20225;-54
2021/01/18 12:23:47;;;;;;;17.75;12.45;;;0.70;99.90;;;;;;5033589;28;20193;-49
2021/01/18 12:26:16;;;;;;;30.73;17.10;;;0.70;99.90;;;;;;5033656;28;20702;-48
2021/01/18 12:28:43;;;;;;;16.83;10.63;;;0.60;99.90;;;;;;5032846;28;20193;-51
2021/01/18 12:31:10;;;;;;;17.08;12.50;;;0.70;99.90;;;;;;5032074;28;20271;-55
2021/01/18 12:33:38;;;;;;;23.08;14.70;;;1.00;99.90;;;;;;5014154;28;20232;-55
2021/01/18 12:36:06;;;;;;;16.27;11.25;;;1.20;99.90;;;;;;5032328;28;20231;-51
2021/01/18 12:38:35;;;;;;;29.23;18.20;;;1.20;99.90;;;;;;5031825;28;20265;-54
2021/01/18 12:41:02;;;;;;;23.20;15.32;;;1.20;99.90;;;;;;5031382;28;20209;-53
2021/01/18 12:43:30;;;;;;;25.30;15.48;;;1.10;99.90;;;;;;5031540;28;20196;-49
2021/01/18 12:46:00;;;;;;;21.88;13.00;;;1.20;99.90;;;;;;5031597;28;20216;-52
2021/01/18 12:48:28;;;;;;;29.50;14.13;;;1.20;99.90;;;;;;5032932;28;20174;-54
2021/01/18 12:50:56;;;;;;;30.42;16.17;;;1.10;99.90;;;;;;5036026;28;20212;-49
2021/01/18 12:56:09;;;;;;;20.55;12.57;;;1.10;99.90;;;;;;5035087;28;20176;-53
2021/01/18 12:58:36;;;;;;;22.63;12.50;;;1.10;99.90;;;;;;5015456;28;20201;-58
2021/01/18 13:01:04;;;;;;;24.20;13.70;;;1.10;99.90;;;;;;5016328;28;20261;-51
2021/01/18 13:03:31;;;;;;;29.48;15.27;;;1.20;99.90;;;;;;5015874;28;20190;-48